Аэропорт
Челябинск (USCC)

 USCC / CEK
ЗЦ Екатеринбург
Екатеринбург (USSS)
Челябинск (USCC)
 55.30580, 61.50330  / 769 ft

 USCC 251130Z 29004MPS 9999 SCT040CB 25/09 Q1012 R27/000060 NOSIG RMK QFE739
 TAF USCC 250800Z 2509/2609 22003G10MPS 9999 SCT040CB TEMPO 2509/2518 20005G13MPS TEMPO 2518/2603 5000 -SHRA BKN011CB
АИП 1605, АИП Таблицы, Данные
показать схемы

2019 © VATRUS division (Privacy Policy)